Time;durP1;ratioP1;P1;durP2;ratioP2;P2;SDS_P1;SDS_P2;PMS_P1;PMS_P2;Temp;Humidity;BMP_temperature;BMP_pressure;BME280_temperature;BME280_humidity;BME280_pressure;Samples;Min_cycle;Max_cycle;Signal;HPM_P1;HPM_P2
2021/12/25 00:01:53;;;;;;;11.77;7.07;;;;;;;9.42;94.15;99461.41;4971471;28;20301;-64
2021/12/25 00:04:22;;;;;;;11.77;7.93;;;;;;;9.09;96.18;99457.06;4968470;28;20211;-63
2021/12/25 00:06:50;;;;;;;11.80;7.97;;;;;;;9.33;95.00;99459.75;4970382;28;20306;-65
2021/12/25 00:09:17;;;;;;;13.43;7.20;;;;;;;9.38;93.54;99452.97;4968448;28;20214;-64
2021/12/25 00:11:46;;;;;;;12.33;7.67;;;;;;;9.57;92.42;99457.13;4970410;28;20612;-66
2021/12/25 00:14:14;;;;;;;11.20;7.00;;;;;;;9.44;92.96;99451.47;4973863;28;20233;-65
2021/12/25 00:16:44;;;;;;;10.53;6.83;;;;;;;9.34;93.92;99454.28;4972807;28;20634;-64
2021/12/25 00:19:11;;;;;;;16.43;6.93;;;;;;;9.18;95.31;99456.94;4973102;28;20306;-64
2021/12/25 00:21:39;;;;;;;9.70;7.10;;;;;;;9.20;95.27;99454.94;4972713;28;20225;-64
2021/12/25 00:24:07;;;;;;;10.10;6.37;;;;;;;9.41;93.89;99450.00;4960522;28;20664;-64
2021/12/25 00:26:49;;;;;;;10.00;6.90;;;;;;;9.35;94.10;99441.88;4974766;28;20285;-66
2021/12/25 00:32:40;;;;;;;10.40;6.43;;;;;;;9.26;95.36;99443.72;4973704;28;20298;-66
2021/12/25 00:35:08;;;;;;;11.40;6.27;;;;;;;9.49;93.20;99443.91;4973139;28;20215;-64
2021/12/25 00:37:36;;;;;;;12.23;6.67;;;;;;;9.58;92.14;99440.25;4974833;28;20328;-64
2021/12/25 00:40:05;;;;;;;12.93;6.90;;;;;;;9.38;93.64;99436.28;4973126;28;20875;-64
2021/12/25 00:42:33;;;;;;;15.47;7.73;;;;;;;9.40;93.20;99423.72;4972546;28;20207;-64
2021/12/25 00:45:02;;;;;;;12.97;7.27;;;;;;;9.25;94.93;99420.88;4974574;28;20214;-64
2021/12/25 00:47:29;;;;;;;17.23;7.30;;;;;;;9.02;96.67;99420.72;4973461;28;20305;-64
2021/12/25 00:49:57;;;;;;;18.97;8.20;;;;;;;9.26;94.72;99422.53;4973485;28;20242;-64
2021/12/25 00:52:25;;;;;;;14.73;7.80;;;;;;;9.34;93.54;99429.66;4972675;28;20218;-65
2021/12/25 00:54:52;;;;;;;15.40;7.63;;;;;;;9.41;93.17;99425.38;4972241;28;20253;-64
2021/12/25 00:57:20;;;;;;;12.40;8.00;;;;;;;9.40;93.25;99435.13;4980718;28;20245;-64
2021/12/25 00:59:48;;;;;;;17.07;7.20;;;;;;;9.58;91.98;99436.78;4973118;28;20222;-64
2021/12/25 01:02:17;;;;;;;10.90;6.20;;;;;;;9.67;91.44;99430.47;4970829;28;20222;-64
2021/12/25 01:04:45;;;;;;;10.30;6.43;;;;;;;9.68;91.05;99432.09;4973104;28;20215;-64
2021/12/25 01:07:13;;;;;;;12.40;5.50;;;;;;;9.71;91.14;99440.56;4972642;28;20210;-64
2021/12/25 01:09:41;;;;;;;9.40;5.70;;;;;;;9.76;90.92;99434.78;4973608;28;20334;-64
2021/12/25 01:12:09;;;;;;;10.63;5.97;;;;;;;9.74;90.74;99436.75;4971233;28;20301;-64
2021/12/25 01:14:42;;;;;;;8.23;5.07;;;;;;;9.69;90.90;99439.88;4971311;28;20215;-64
2021/12/25 01:17:26;;;;;;;7.23;4.80;;;;;;;9.66;91.08;99436.78;4962554;28;20270;-65
2021/12/25 01:30:58;;;;;;;9.87;5.27;;;;;;;9.77;89.54;99433.75;4971503;28;20238;-63
2021/12/25 01:36:33;;;;;;;9.20;5.53;;;;;;;9.78;89.80;99440.69;4970653;28;20217;-64
2021/12/25 01:39:08;;;;;;;9.70;5.80;;;;;;;9.68;90.13;99432.94;4970384;28;20210;-64
2021/12/25 01:49:57;;;;;;;9.60;5.47;;;;;;;9.70;89.97;99430.13;4973311;28;20693;-64
2021/12/25 01:52:29;;;;;;;9.97;6.07;;;;;;;9.62;90.41;99436.25;4971760;28;20232;-64
2021/12/25 01:55:00;;;;;;;9.73;6.33;;;;;;;9.74;90.06;99427.00;4970847;28;20214;-64
2021/12/25 01:57:29;;;;;;;8.00;5.53;;;;;;;9.73;89.89;99427.16;4971094;28;20241;-64
2021/12/25 01:59:58;;;;;;;8.47;5.63;;;;;;;9.75;89.58;99428.66;4973202;28;20736;-65
2021/12/25 02:02:26;;;;;;;9.10;5.83;;;;;;;9.74;89.90;99431.47;4972055;28;20211;-66
2021/12/25 02:04:55;;;;;;;12.37;6.10;;;;;;;9.67;90.13;99430.47;4970213;28;20222;-65
2021/12/25 02:07:23;;;;;;;10.37;5.80;;;;;;;9.71;89.85;99421.19;4971303;28;20243;-64
2021/12/25 02:09:52;;;;;;;9.73;5.90;;;;;;;9.71;89.76;99426.50;4968484;28;20211;-64
2021/12/25 02:12:20;;;;;;;8.97;5.67;;;;;;;9.74;89.76;99428.81;4956460;28;20211;-64
2021/12/25 02:14:48;;;;;;;8.60;5.67;;;;;;;9.79;89.32;99424.66;4972813;28;20296;-64
2021/12/25 02:17:23;;;;;;;10.07;6.03;;;;;;;9.44;91.96;99423.22;4971174;28;20225;-64
2021/12/25 02:20:11;;;;;;;10.07;5.97;;;;;;;9.64;90.61;99421.03;4969942;28;20225;-64
2021/12/25 02:22:39;;;;;;;8.43;5.73;;;;;;;9.71;90.08;99419.38;4969498;28;20211;-64
2021/12/25 02:25:08;;;;;;;8.93;5.73;;;;;;;9.70;89.65;99419.53;4972092;28;20233;-64
2021/12/25 02:27:37;;;;;;;11.03;7.20;;;;;;;9.33;93.31;99418.25;4972097;28;20250;-64
2021/12/25 02:30:07;;;;;;;10.80;7.47;;;;;;;9.45;92.91;99410.81;4973166;28;20247;-64
2021/12/25 02:32:34;;;;;;;11.47;7.03;;;;;;;9.51;92.32;99417.25;4969868;28;20218;-64
2021/12/25 02:35:02;;;;;;;12.67;7.97;;;;;;;9.55;92.16;99402.69;4967986;28;20223;-64
2021/12/25 02:37:31;;;;;;;11.63;8.07;;;;;;;9.56;92.02;99407.00;4970446;28;20211;-64
2021/12/25 02:39:59;;;;;;;11.70;7.60;;;;;;;9.65;91.46;99404.19;4969942;28;20213;-64
2021/12/25 02:42:27;;;;;;;11.97;7.77;;;;;;;9.72;90.58;99397.22;4971157;28;20301;-65
2021/12/25 02:44:54;;;;;;;14.23;9.50;;;;;;;9.42;92.77;99392.59;4969946;28;20214;-64
2021/12/25 02:47:22;;;;;;;13.00;9.03;;;;;;;9.36;93.76;99391.47;4970580;28;20225;-64
2021/12/25 02:49:51;;;;;;;13.20;9.03;;;;;;;9.00;98.04;99388.31;4966591;28;20207;-65
2021/12/25 02:52:19;;;;;;;13.50;9.17;;;;;;;9.06;96.90;99390.28;4970240;28;20204;-64
2021/12/25 02:54:49;;;;;;;12.83;9.40;;;;;;;8.92;98.50;99382.19;4971323;28;20229;-64
2021/12/25 02:57:17;;;;;;;18.50;10.10;;;;;;;9.05;97.48;99385.19;4970796;28;20311;-64
2021/12/25 02:59:45;;;;;;;18.10;10.73;;;;;;;9.16;96.30;99384.84;4971168;28;20329;-64
2021/12/25 03:02:15;;;;;;;15.87;10.77;;;;;;;9.32;95.16;99374.25;4968713;28;20241;-64
2021/12/25 03:04:45;;;;;;;21.13;11.00;;;;;;;9.42;94.03;99369.63;4964772;28;20214;-64
2021/12/25 03:07:14;;;;;;;16.20;10.60;;;;;;;9.48;93.49;99370.78;4971595;28;20298;-64
2021/12/25 03:09:42;;;;;;;16.47;10.60;;;;;;;9.47;93.49;99373.59;4970018;28;20302;-64
2021/12/25 03:12:15;;;;;;;16.43;11.13;;;;;;;9.13;96.81;99369.34;4969155;28;20215;-64
2021/12/25 03:15:03;;;;;;;17.07;11.03;;;;;;;9.26;96.48;99369.63;4970744;28;20590;-64
2021/12/25 03:17:32;;;;;;;17.90;10.50;;;;;;;9.43;94.18;99375.75;4970615;28;20605;-64
2021/12/25 03:20:00;;;;;;;18.70;12.07;;;;;;;9.60;92.67;99366.78;4971531;28;20207;-65
2021/12/25 03:22:28;;;;;;;15.17;10.77;;;;;;;9.54;93.48;99366.63;4969552;28;20219;-64
2021/12/25 03:24:56;;;;;;;14.37;9.93;;;;;;;9.60;92.66;99372.06;4970198;28;20238;-64
2021/12/25 03:27:25;;;;;;;17.57;10.70;;;;;;;9.62;91.94;99375.38;4970470;28;20239;-64
2021/12/25 03:29:53;;;;;;;17.27;10.37;;;;;;;9.62;92.71;99370.09;4968001;28;20302;-63
2021/12/25 03:32:21;;;;;;;15.47;10.40;;;;;;;9.58;93.15;99373.25;4972674;28;20218;-64
2021/12/25 03:34:49;;;;;;;16.67;10.87;;;;;;;9.65;92.10;99369.75;4968627;28;20286;-63
2021/12/25 03:37:17;;;;;;;16.17;10.37;;;;;;;9.72;91.71;99364.63;4970374;28;20225;-64
2021/12/25 03:39:44;;;;;;;15.07;10.33;;;;;;;9.61;92.44;99364.97;4969315;28;20695;-64
2021/12/25 03:42:12;;;;;;;14.67;10.00;;;;;;;9.66;91.99;99362.66;4969834;28;20599;-64
2021/12/25 03:44:41;;;;;;;16.50;11.07;;;;;;;9.64;91.94;99364.63;4970605;28;20210;-64
2021/12/25 03:47:22;;;;;;;15.53;10.53;;;;;;;9.57;92.70;99369.78;4988192;28;20688;-63
2021/12/25 03:53:12;;;;;;;16.07;10.97;;;;;;;9.62;92.47;99363.97;4912018;29;20298;-64
2021/12/25 03:58:29;;;;;;;19.90;11.67;;;;;;;9.27;97.47;99355.44;4956194;28;20214;-64
2021/12/25 04:01:03;;;;;;;16.73;10.47;;;;;;;9.57;94.12;99361.03;4961914;28;20298;-63
2021/12/25 04:03:43;;;;;;;15.57;10.07;;;;;;;9.51;94.40;99353.72;4972598;28;20238;-64
2021/12/25 04:06:11;;;;;;;16.17;11.53;;;;;;;9.51;94.33;99356.38;4975043;28;20211;-63
2021/12/25 04:08:43;;;;;;;17.93;11.20;;;;;;;9.48;94.35;99348.78;4971935;28;20272;-63
2021/12/25 04:11:15;;;;;;;15.20;10.60;;;;;;;9.61;93.46;99346.44;4972791;28;20215;-63
2021/12/25 04:13:42;;;;;;;15.70;10.97;;;;;;;9.59;93.37;99351.06;4972284;28;20313;-65
2021/12/25 04:16:11;;;;;;;17.37;12.63;;;;;;;9.61;93.74;99352.56;4978905;28;20697;-65
2021/12/25 04:18:39;;;;;;;15.83;11.10;;;;;;;9.70;93.21;99350.72;4974068;28;20218;-65
2021/12/25 04:21:07;;;;;;;18.90;11.53;;;;;;;9.67;92.95;99346.59;4972518;28;20665;-65
2021/12/25 04:23:38;;;;;;;15.50;10.67;;;;;;;9.46;94.82;99353.41;4971608;28;20413;-65
2021/12/25 04:26:05;;;;;;;16.03;10.67;;;;;;;9.26;97.89;99348.47;4971089;28;20322;-65
2021/12/25 04:28:40;;;;;;;18.57;11.20;;;;;;;9.22;98.22;99346.34;4972154;28;20219;-65
2021/12/25 04:31:26;;;;;;;15.47;10.33;;;;;;;9.29;97.32;99348.16;4974667;28;20306;-65
2021/12/25 04:48:05;;;;;;;14.80;9.57;;;;;;;9.63;94.55;99360.34;4974440;28;20486;-64
2021/12/25 05:01:52;;;;;;;15.00;10.33;;;;;;;9.52;95.75;99355.38;4973199;28;20321;-64
2021/12/25 05:04:25;;;;;;;16.13;11.33;;;;;;;9.53;95.61;99354.41;4971673;28;20261;-64
2021/12/25 05:06:54;;;;;;;13.67;9.40;;;;;;;9.63;94.90;99357.69;4971632;28;20306;-64
2021/12/25 05:09:22;;;;;;;14.20;10.13;;;;;;;9.37;96.46;99369.31;4972475;28;20215;-64
2021/12/25 05:11:50;;;;;;;14.60;9.83;;;;;;;9.52;95.92;99355.38;4972615;28;20221;-64
2021/12/25 05:14:18;;;;;;;13.83;10.00;;;;;;;9.30;97.63;99351.63;4955091;28;20218;-64
2021/12/25 05:16:45;;;;;;;15.23;10.30;;;;;;;9.30;97.63;99349.81;4971635;28;20219;-64
2021/12/25 05:19:13;;;;;;;13.90;10.10;;;;;;;9.40;96.38;99345.19;4970671;28;20293;-64
2021/12/25 05:21:41;;;;;;;15.43;9.80;;;;;;;9.41;96.71;99346.81;4971061;28;20246;-64
2021/12/25 05:24:10;;;;;;;14.77;10.30;;;;;;;9.26;98.36;99345.84;4969585;28;20235;-64
2021/12/25 05:26:38;;;;;;;15.53;11.37;;;;;;;9.49;96.68;99347.81;4973318;28;20242;-64
2021/12/25 05:29:07;;;;;;;15.10;10.47;;;;;;;9.40;97.65;99361.06;4971690;28;20337;-64
2021/12/25 05:31:36;;;;;;;15.93;10.10;;;;;;;9.51;96.67;99345.78;4972639;28;20538;-64
2021/12/25 05:34:05;;;;;;;16.83;10.73;;;;;;;9.49;96.44;99359.22;4971103;28;20206;-64
2021/12/25 05:36:32;;;;;;;15.07;10.27;;;;;;;9.54;96.08;99351.59;4971166;28;20575;-65
2021/12/25 05:39:00;;;;;;;14.17;10.03;;;;;;;9.26;98.07;99343.19;4975125;28;20234;-64
2021/12/25 05:41:31;;;;;;;13.60;10.67;;;;;;;9.48;96.13;99339.03;4971276;28;20325;-64
2021/12/25 05:43:59;;;;;;;14.30;10.20;;;;;;;9.55;95.65;99347.13;4971047;28;20241;-64
2021/12/25 05:46:27;;;;;;;14.63;10.27;;;;;;;9.59;95.19;99351.06;4970838;28;20217;-64
2021/12/25 05:48:55;;;;;;;13.30;9.63;;;;;;;9.63;94.87;99355.03;4970449;28;20670;-64
2021/12/25 05:51:26;;;;;;;14.73;9.83;;;;;;;9.60;94.33;99353.53;4972739;28;20219;-64
2021/12/25 05:53:53;;;;;;;13.87;9.43;;;;;;;9.56;95.15;99349.59;4971253;28;20673;-64
2021/12/25 05:56:24;;;;;;;15.30;10.13;;;;;;;9.60;94.25;99347.44;4970610;28;20248;-64
2021/12/25 05:58:54;;;;;;;16.00;10.67;;;;;;;9.61;94.12;99346.44;4971533;28;21176;-64
2021/12/25 06:01:21;;;;;;;13.90;9.83;;;;;;;9.55;93.82;99347.13;4970426;28;20307;-64
2021/12/25 06:03:50;;;;;;;12.87;9.03;;;;;;;9.61;93.38;99343.78;4972040;28;20239;-64
2021/12/25 06:06:17;;;;;;;14.90;9.50;;;;;;;9.55;93.90;99337.38;4972721;28;20250;-64
2021/12/25 06:08:45;;;;;;;14.50;10.50;;;;;;;9.62;93.42;99334.84;4969350;28;20210;-64
2021/12/25 06:11:16;;;;;;;13.27;9.13;;;;;;;9.61;93.08;99336.69;4971351;28;20217;-64
2021/12/25 06:13:55;;;;;;;12.47;8.33;;;;;;;9.63;92.89;99336.50;4968428;28;20316;-64
2021/12/25 06:16:24;;;;;;;10.53;8.07;;;;;;;9.56;93.35;99333.72;4971874;28;20396;-64
2021/12/25 06:18:52;;;;;;;10.77;7.93;;;;;;;9.60;93.16;99331.53;4970668;28;20612;-64
2021/12/25 06:21:20;;;;;;;10.93;7.87;;;;;;;9.64;92.91;99340.81;4969794;28;20229;-64
2021/12/25 06:23:47;;;;;;;10.13;7.63;;;;;;;9.58;92.90;99344.16;4970221;28;20233;-64
2021/12/25 06:26:38;;;;;;;11.10;7.77;;;;;;;9.57;93.28;99347.78;4969908;28;20243;-64
2021/12/25 06:29:05;;;;;;;9.97;7.30;;;;;;;9.53;93.16;99339.34;4972139;28;20278;-64
2021/12/25 06:31:35;;;;;;;9.60;7.40;;;;;;;9.53;92.75;99338.53;4971310;28;20211;-64
2021/12/25 06:34:03;;;;;;;10.23;6.93;;;;;;;9.49;93.21;99339.88;4968660;28;20257;-65
2021/12/25 06:36:31;;;;;;;8.40;6.10;;;;;;;9.51;92.54;99340.50;4975277;28;20219;-64
2021/12/25 06:38:59;;;;;;;9.77;6.13;;;;;;;9.50;92.74;99338.88;4970498;28;20246;-64
2021/12/25 06:41:28;;;;;;;8.10;5.67;;;;;;;9.52;92.33;99342.97;4971284;28;20596;-64
2021/12/25 06:43:56;;;;;;;8.50;6.00;;;;;;;9.55;92.27;99334.72;4970958;28;20238;-64
2021/12/25 06:46:24;;;;;;;8.57;6.17;;;;;;;9.54;92.16;99332.22;4969928;28;20229;-64
2021/12/25 06:48:53;;;;;;;13.37;7.93;;;;;;;9.53;92.18;99333.22;4969000;28;20302;-64
2021/12/25 06:51:20;;;;;;;14.77;7.43;;;;;;;9.55;92.17;99342.66;4968948;28;20257;-64
2021/12/25 06:53:48;;;;;;;10.87;7.13;;;;;;;9.40;93.08;99339.88;4970928;28;20209;-64
2021/12/25 06:56:16;;;;;;;10.93;7.00;;;;;;;9.47;92.81;99350.63;4968880;28;20265;-64
2021/12/25 06:58:43;;;;;;;11.73;8.00;;;;;;;9.40;93.21;99354.94;4970402;28;20318;-64
2021/12/25 07:01:11;;;;;;;9.73;7.43;;;;;;;9.48;92.59;99356.72;4968785;28;20451;-64
2021/12/25 07:03:39;;;;;;;9.77;7.00;;;;;;;9.36;92.53;99365.00;4967837;28;20227;-64
2021/12/25 07:06:09;;;;;;;8.60;5.70;;;;;;;9.15;94.74;99366.53;4954501;28;20222;-64
2021/12/25 07:08:38;;;;;;;8.20;5.77;;;;;;;9.36;92.79;99365.00;4971050;28;20241;-64
2021/12/25 07:11:05;;;;;;;7.70;5.77;;;;;;;9.41;92.50;99369.81;4969622;28;20210;-64
2021/12/25 07:13:33;;;;;;;8.37;6.00;;;;;;;9.42;91.93;99372.25;4968431;28;20207;-64
2021/12/25 07:16:01;;;;;;;9.03;5.30;;;;;;;9.36;92.50;99370.31;4969425;28;20568;-65
2021/12/25 07:18:28;;;;;;;7.43;5.83;;;;;;;9.41;92.25;99377.75;4970827;28;20364;-64
2021/12/25 07:20:56;;;;;;;8.13;5.87;;;;;;;9.24;93.13;99376.91;4969236;28;20858;-65
2021/12/25 07:23:25;;;;;;;7.57;5.47;;;;;;;9.33;92.63;99378.56;4967966;28;20317;-64
2021/12/25 07:25:53;;;;;;;8.10;5.33;;;;;;;9.35;92.50;99376.59;4968855;28;20245;-64
2021/12/25 07:28:21;;;;;;;9.63;6.47;;;;;;;9.32;92.52;99379.53;4969512;28;20218;-65
2021/12/25 07:30:50;;;;;;;8.50;5.70;;;;;;;9.35;92.16;99383.69;4969996;28;20225;-65
2021/12/25 07:33:19;;;;;;;9.43;6.50;;;;;;;9.35;92.07;99388.97;4970137;28;20207;-65
2021/12/25 07:35:51;;;;;;;10.10;7.20;;;;;;;9.44;91.84;99387.97;4972017;28;20213;-65
2021/12/25 07:38:20;;;;;;;10.77;7.53;;;;;;;9.33;92.22;99388.31;4975496;28;20211;-65
2021/12/25 07:40:50;;;;;;;11.93;7.53;;;;;;;9.37;92.15;99387.00;4970016;28;20242;-65
2021/12/25 07:43:18;;;;;;;10.27;6.63;;;;;;;9.37;91.91;99382.53;4970089;28;20325;-65
2021/12/25 07:45:47;;;;;;;8.80;5.80;;;;;;;9.37;91.95;99387.00;4969955;28;20229;-65
2021/12/25 07:48:18;;;;;;;7.50;5.67;;;;;;;9.36;91.67;99394.09;4970104;28;20218;-64
2021/12/25 07:50:47;;;;;;;9.10;6.13;;;;;;;9.33;91.87;99399.72;4968603;28;20215;-64
2021/12/25 07:53:16;;;;;;;8.37;5.93;;;;;;;9.29;91.76;99401.06;4968110;28;20208;-64
2021/12/25 07:55:44;;;;;;;7.50;5.80;;;;;;;9.28;91.64;99399.41;4969791;28;20214;-64
2021/12/25 07:58:13;;;;;;;8.43;5.07;;;;;;;9.31;91.70;99399.09;4968574;28;20239;-64
2021/12/25 08:00:41;;;;;;;7.20;5.37;;;;;;;9.39;91.25;99409.66;4969753;28;20309;-65
2021/12/25 08:03:09;;;;;;;9.13;6.13;;;;;;;9.35;91.26;99404.84;4966715;28;20216;-65
2021/12/25 08:05:37;;;;;;;7.13;5.20;;;;;;;9.33;91.17;99410.31;4967546;28;20753;-65
2021/12/25 08:08:07;;;;;;;8.53;6.20;;;;;;;9.21;91.92;99414.28;4970492;28;20305;-64
2021/12/25 08:10:34;;;;;;;7.37;5.67;;;;;;;9.29;91.81;99414.28;4970550;28;20254;-64
2021/12/25 08:13:02;;;;;;;8.07;5.93;;;;;;;9.32;91.40;99411.28;4968078;28;20302;-64
2021/12/25 08:15:33;;;;;;;9.13;6.67;;;;;;;9.32;90.94;99418.44;4969219;28;20218;-64
2021/12/25 08:18:01;;;;;;;9.03;5.83;;;;;;;9.32;91.29;99416.59;4969282;28;20214;-64
2021/12/25 08:20:31;;;;;;;9.03;6.43;;;;;;;9.37;90.92;99411.63;4969755;28;20600;-64
2021/12/25 08:22:58;;;;;;;9.20;6.73;;;;;;;9.35;90.94;99420.72;4970456;28;20263;-64
2021/12/25 08:25:26;;;;;;;9.10;6.30;;;;;;;9.21;92.15;99424.88;4965634;28;20239;-64
2021/12/25 08:27:55;;;;;;;9.73;6.63;;;;;;;9.27;91.24;99421.56;4970027;28;20672;-64
2021/12/25 08:30:26;;;;;;;9.70;6.57;;;;;;;9.26;91.07;99422.53;4970121;28;20660;-64
2021/12/25 08:32:57;;;;;;;10.03;6.67;;;;;;;9.28;90.41;99431.16;4972503;28;20668;-64
2021/12/25 08:35:27;;;;;;;10.10;7.03;;;;;;;9.06;90.78;99434.41;4972279;28;20215;-64
2021/12/25 08:37:55;;;;;;;10.73;7.70;;;;;;;9.07;91.34;99438.72;4973617;28;20334;-64
2021/12/25 08:40:25;;;;;;;9.90;6.77;;;;;;;9.23;89.93;99437.94;4973548;28;20305;-65
2021/12/25 08:42:58;;;;;;;10.87;7.33;;;;;;;9.20;89.45;99435.59;4984003;28;20246;-65
2021/12/25 08:45:47;;;;;;;11.87;8.30;;;;;;;9.01;90.04;99449.97;4973669;28;20647;-65
2021/12/25 08:48:20;;;;;;;11.53;7.80;;;;;;;8.91;90.84;99459.84;4973389;28;20226;-65
2021/12/25 08:50:50;;;;;;;11.17;7.63;;;;;;;8.68;88.74;99455.19;4972513;28;20309;-64
2021/12/25 08:53:19;;;;;;;11.73;7.47;;;;;;;8.79;89.29;99455.88;4971287;28;20211;-65
2021/12/25 08:55:48;;;;;;;12.70;7.97;;;;;;;8.81;88.42;99459.16;4972354;28;20208;-64
2021/12/25 08:58:16;;;;;;;11.80;6.93;;;;;;;8.86;87.67;99467.44;4972965;28;20214;-65
2021/12/25 09:00:46;;;;;;;11.67;7.50;;;;;;;8.60;87.74;99455.16;4973652;28;20223;-64
2021/12/25 09:03:14;;;;;;;10.33;6.93;;;;;;;8.78;88.43;99459.50;4971575;28;20225;-65
2021/12/25 09:05:43;;;;;;;10.70;6.40;;;;;;;8.81;87.30;99454.69;4971882;28;20239;-63
2021/12/25 09:08:11;;;;;;;10.93;7.43;;;;;;;8.36;86.69;99464.78;4970825;28;20218;-64
2021/12/25 09:10:40;;;;;;;10.40;7.23;;;;;;;8.65;86.73;99460.78;4957875;28;20225;-65
2021/12/25 09:13:08;;;;;;;11.37;7.13;;;;;;;8.51;85.95;99469.31;4973212;28;20240;-65
2021/12/25 09:15:36;;;;;;;9.57;6.60;;;;;;;8.51;85.15;99463.22;4973011;28;20727;-64
2021/12/25 09:18:04;;;;;;;10.30;6.83;;;;;;;8.51;84.85;99469.31;4971582;28;20715;-65
2021/12/25 09:20:32;;;;;;;12.63;7.50;;;;;;;8.80;84.16;99468.06;4970642;28;20305;-65
2021/12/25 09:23:01;;;;;;;12.37;7.27;;;;;;;8.67;84.54;99466.72;4970904;28;20708;-66
2021/12/25 09:25:28;;;;;;;9.13;6.50;;;;;;;8.87;83.26;99474.41;4973743;28;20711;-64
2021/12/25 09:27:57;;;;;;;10.33;6.87;;;;;;;8.71;83.64;99491.00;4973077;28;20214;-66
2021/12/25 09:30:25;;;;;;;9.23;6.47;;;;;;;8.57;83.41;99494.28;4971333;28;20842;-66
2021/12/25 09:32:53;;;;;;;9.10;6.30;;;;;;;8.68;83.07;99491.34;4970668;28;20239;-66
2021/12/25 09:35:24;;;;;;;8.97;6.40;;;;;;;8.35;84.06;99500.13;4972448;28;20257;-67
2021/12/25 09:37:51;;;;;;;9.57;6.17;;;;;;;8.61;83.50;99507.03;4973105;28;20225;-66
2021/12/25 09:40:21;;;;;;;8.90;5.70;;;;;;;8.37;82.60;99509.53;4973268;28;20530;-65
2021/12/25 09:42:48;;;;;;;7.70;5.33;;;;;;;8.16;83.90;99522.25;4970820;28;20648;-64
2021/12/25 09:45:16;;;;;;;8.80;5.27;;;;;;;8.28;82.94;99523.63;4972857;28;20687;-64
2021/12/25 09:47:44;;;;;;;9.53;5.00;;;;;;;8.22;82.92;99524.28;4971661;28;20686;-65
2021/12/25 09:50:12;;;;;;;6.40;4.27;;;;;;;7.92;83.69;99520.25;4973633;28;20310;-64
2021/12/25 09:52:40;;;;;;;6.10;4.10;;;;;;;8.27;82.49;99519.34;4969631;28;20692;-65
2021/12/25 09:55:08;;;;;;;6.07;4.37;;;;;;;7.93;81.98;99525.41;4972233;28;20215;-65
2021/12/25 09:57:38;;;;;;;7.13;4.67;;;;;;;7.85;83.91;99527.97;4972250;28;20240;-63
2021/12/25 10:00:09;;;;;;;5.27;3.43;;;;;;;7.75;82.80;99529.03;4972300;28;20222;-64
2021/12/25 10:02:43;;;;;;;5.53;4.10;;;;;;;7.90;83.00;99533.63;4973158;28;20665;-64
2021/12/25 10:05:11;;;;;;;7.50;4.03;;;;;;;8.05;81.72;99533.91;4971388;28;20303;-63
2021/12/25 10:07:40;;;;;;;5.50;3.73;;;;;;;7.97;81.57;99541.78;4972393;28;20305;-64
2021/12/25 10:10:11;;;;;;;5.70;4.17;;;;;;;7.84;83.04;99544.78;4971091;28;20222;-65
2021/12/25 10:12:44;;;;;;;5.37;3.70;;;;;;;8.14;81.73;99537.44;4971424;28;20314;-65
2021/12/25 10:15:15;;;;;;;4.13;2.67;;;;;;;7.96;80.79;99534.00;4972915;28;20206;-65
2021/12/25 10:17:46;;;;;;;5.47;2.60;;;;;;;7.18;82.50;99539.09;4971072;28;20345;-65
2021/12/25 10:20:17;;;;;;;4.40;2.70;;;;;;;7.45;83.68;99539.03;4969503;28;20218;-64
2021/12/25 10:22:59;;;;;;;4.10;2.60;;;;;;;7.65;82.39;99539.69;4968758;28;20214;-63
2021/12/25 10:25:32;;;;;;;4.67;3.17;;;;;;;7.72;82.18;99543.41;4970297;28;20244;-63
2021/12/25 10:28:06;;;;;;;4.10;3.00;;;;;;;7.90;81.03;99541.56;4971478;28;20819;-64
2021/12/25 10:30:45;;;;;;;4.63;2.90;;;;;;;7.91;80.79;99545.88;4972565;28;20305;-64
2021/12/25 10:33:25;;;;;;;3.60;2.30;;;;;;;7.67;81.21;99547.44;4971283;28;20311;-66
2021/12/25 10:35:54;;;;;;;5.43;2.33;;;;;;;7.67;81.57;99543.00;4970194;28;20216;-64
2021/12/25 10:38:24;;;;;;;3.47;2.30;;;;;;;7.89;80.75;99536.44;4969437;28;20264;-64
2021/12/25 10:41:10;;;;;;;3.27;2.20;;;;;;;7.98;79.50;99534.69;4969503;28;20741;-64
2021/12/25 10:43:42;;;;;;;4.03;2.47;;;;;;;7.53;80.79;99538.28;4970159;28;20219;-64
2021/12/25 10:46:10;;;;;;;4.37;2.47;;;;;;;7.69;79.85;99546.31;4971972;28;20224;-64
2021/12/25 10:48:38;;;;;;;4.27;2.60;;;;;;;7.57;79.62;99539.59;4969474;28;20311;-64
2021/12/25 10:51:06;;;;;;;4.23;2.70;;;;;;;7.51;80.19;99538.41;4969661;28;20226;-65
2021/12/25 10:53:40;;;;;;;4.60;2.50;;;;;;;7.52;79.53;99529.53;4969533;28;20595;-64
2021/12/25 10:56:10;;;;;;;6.53;3.10;;;;;;;7.64;79.53;99530.13;4957286;28;20216;-65
2021/12/25 10:58:41;;;;;;;4.93;2.87;;;;;;;7.51;80.04;99540.22;4954281;28;20217;-64
2021/12/25 11:01:14;;;;;;;5.10;2.37;;;;;;;7.59;79.01;99540.28;4971520;28;20221;-65
2021/12/25 11:03:44;;;;;;;4.63;2.97;;;;;;;7.56;79.08;99532.69;4971594;28;20248;-65
2021/12/25 11:06:16;;;;;;;6.07;4.47;;;;;;;7.62;79.14;99534.72;4968737;28;20317;-65
2021/12/25 11:08:45;;;;;;;4.87;2.97;;;;;;;7.27;79.63;99537.34;4968738;28;20213;-65
2021/12/25 11:11:16;;;;;;;4.37;3.00;;;;;;;7.23;80.99;99530.72;4971443;28;20228;-65
2021/12/25 11:13:47;;;;;;;5.43;3.30;;;;;;;7.18;81.25;99537.28;4970830;28;20705;-65
2021/12/25 11:16:23;;;;;;;5.87;3.03;;;;;;;7.12;80.73;99543.13;4970169;28;20250;-66
2021/12/25 11:19:03;;;;;;;5.60;3.40;;;;;;;7.36;80.12;99539.09;4970412;28;20582;-65
2021/12/25 11:21:33;;;;;;;5.27;3.37;;;;;;;7.27;80.51;99542.63;4971006;28;20208;-63
2021/12/25 11:24:14;;;;;;;4.63;3.10;;;;;;;7.16;80.98;99536.59;4969240;28;20598;-65
2021/12/25 11:26:43;;;;;;;5.63;3.27;;;;;;;7.44;79.52;99553.19;4971491;28;20302;-65
2021/12/25 11:29:16;;;;;;;5.87;3.13;;;;;;;7.49;79.08;99550.91;4969329;28;20293;-67
2021/12/25 11:31:45;;;;;;;5.57;2.90;;;;;;;7.00;80.15;99557.50;4968381;28;20311;-65
2021/12/25 11:34:13;;;;;;;5.37;3.00;;;;;;;7.36;79.36;99554.94;4970229;28;20749;-64
2021/12/25 11:36:45;;;;;;;8.20;3.30;;;;;;;7.03;80.23;99559.84;4979565;28;20310;-65
2021/12/25 11:39:15;;;;;;;4.83;3.30;;;;;;;7.20;79.89;99546.84;4969268;28;20577;-65
2021/12/25 11:41:44;;;;;;;5.20;2.73;;;;;;;7.30;80.23;99550.25;4971788;28;20409;-65
2021/12/25 11:44:31;;;;;;;4.87;3.20;;;;;;;7.39;79.80;99547.53;4968370;28;20217;-64
2021/12/25 11:46:59;;;;;;;7.40;3.37;;;;;;;7.32;80.01;99533.28;4967944;28;20337;-64
2021/12/25 11:49:27;;;;;;;5.33;3.00;;;;;;;7.27;79.50;99534.72;4970085;28;20309;-66
2021/12/25 11:51:54;;;;;;;5.30;3.27;;;;;;;7.46;78.80;99531.94;4969358;28;20229;-65
2021/12/25 11:54:28;;;;;;;4.67;3.33;;;;;;;7.32;79.53;99529.81;4959440;28;20309;-65
2021/12/25 11:57:11;;;;;;;5.90;2.87;;;;;;;7.08;80.72;99533.88;4971300;28;20607;-65
2021/12/25 11:59:46;;;;;;;4.50;2.97;;;;;;;7.22;80.89;99535.16;4971207;28;20821;-65
2021/12/25 12:02:40;;;;;;;5.90;3.43;;;;;;;7.25;79.62;99536.69;4970454;28;20307;-65
2021/12/25 12:05:22;;;;;;;4.87;3.00;;;;;;;7.19;79.70;99532.84;4964844;28;20384;-65
2021/12/25 12:08:03;;;;;;;6.00;3.40;;;;;;;7.42;78.51;99533.22;4960606;28;20237;-65
2021/12/25 12:10:55;;;;;;;5.10;3.20;;;;;;;7.12;79.58;99527.31;4973465;28;20472;-65
2021/12/25 12:13:25;;;;;;;4.90;3.30;;;;;;;7.07;80.61;99529.56;4960909;28;20247;-64
2021/12/25 12:15:57;;;;;;;4.17;2.70;;;;;;;7.22;79.58;99534.31;4973680;28;20301;-65
2021/12/25 12:18:34;;;;;;;4.57;3.07;;;;;;;7.17;79.40;99538.25;4974367;28;20223;-65
2021/12/25 12:21:10;;;;;;;6.70;3.60;;;;;;;7.18;78.63;99539.09;4962756;28;20882;-65
2021/12/25 12:23:49;;;;;;;5.87;3.60;;;;;;;7.25;78.82;99536.69;4965532;28;20667;-64
2021/12/25 12:26:50;;;;;;;5.07;3.43;;;;;;;7.12;78.99;99534.41;4961454;28;20264;-66
2021/12/25 12:29:43;;;;;;;6.20;3.60;;;;;;;6.88;78.81;99550.75;4963272;28;20214;-65
2021/12/25 12:32:35;;;;;;;6.47;4.00;;;;;;;7.05;79.37;99546.50;4973428;28;20682;-65
2021/12/25 12:35:24;;;;;;;6.50;4.10;;;;;;;7.11;79.69;99546.75;4970881;28;20222;-64
2021/12/25 12:37:51;;;;;;;6.53;4.00;;;;;;;7.20;78.83;99549.47;4957180;28;20242;-64
2021/12/25 12:40:24;;;;;;;5.73;3.43;;;;;;;7.04;79.51;99555.38;4974068;28;20295;-65
2021/12/25 12:42:56;;;;;;;5.40;3.70;;;;;;;7.00;78.61;99554.88;4971572;28;20221;-65
2021/12/25 12:45:27;;;;;;;7.90;3.73;;;;;;;6.77;79.80;99556.25;4971612;28;20283;-64
2021/12/25 12:48:16;;;;;;;5.80;3.60;;;;;;;7.14;78.94;99562.25;4972773;28;20232;-64
2021/12/25 12:50:46;;;;;;;5.70;3.83;;;;;;;7.10;78.56;99560.09;4971761;28;20217;-64